»·PEaware :: DAL2375 KSLC-KJAC

DAL2375 :: KSLC-KJAC

FLIGHT INFORMATION

Flight Status: Arrived
Operator:
Delta Air Lines
More flights by this operator :: More flights under this callsign
Pilot: Jack B. (5846)
Aircraft: AIRBUS A320
(A320)
More flights by this aircraft type
Origin: KSLC Salt Lake City Intl
United States
Destination: KJAC Jackson Hole
United States
More flights between these airports :: More routes between these airports
Route: +RUGGD1 HOLTR DNW
File this flight plan on PilotEdge
Remarks:
Altitude:
(Current/Filed)
310ft
Speed:
(Current/Filed)
320kts
Departed: 09-Oct-19 11:28 AM
Arrived: 09-Oct-19 12:10 PM
Distance/Time
Traveled:
178nm/0:42
Distance/Time
To Go:
Arrived

Flight Plot

Page will automatically refresh every two minutes.


Map Options




Map Legend


Flown Route
Filed Route
Departure Airport
Arrival Airport
Navaid (VOR, NDB)
Fix

Horizontal Profiles

Position Reports

Time Latitude Longitude Heading Altitude Ground
Speed
09-Oct-19 11:10 40.789027 -111.983775 252 4227ft 0kts
09-Oct-19 11:11 40.789027 -111.983775 252 4227ft 0kts
09-Oct-19 11:12 40.789027 -111.983775 252 4227ft 0kts
09-Oct-19 11:13 40.789027 -111.983775 252 4227ft 0kts
09-Oct-19 11:14 40.789027 -111.983775 252 4227ft 0kts
09-Oct-19 11:15 40.789027 -111.983775 252 4227ft 0kts
09-Oct-19 11:16 40.789027 -111.983775 252 4227ft 0kts
09-Oct-19 11:17 40.789027 -111.983775 252 4227ft 0kts
09-Oct-19 11:18 40.789238 -111.982574 302 4227ft 0kts
09-Oct-19 11:19 40.789089 -111.982448 349 4227ft 0kts
09-Oct-19 11:20 40.790108 -111.979656 76 4227ft 12kts
09-Oct-19 11:21 40.790248 -111.978423 86 4224ft 0kts
09-Oct-19 11:22 40.790253 -111.978307 85 4224ft 6kts
09-Oct-19 11:23 40.787143 -111.976756 174 4227ft 17kts
09-Oct-19 11:24 40.781827 -111.976138 176 4227ft 21kts
09-Oct-19 11:25 40.776911 -111.975555 175 4227ft 19kts
09-Oct-19 11:26 40.776196 -111.973304 356 4227ft 38kts
09-Oct-19 11:27 40.808853 -111.977149 355 4617ft 156kts
09-Oct-19 11:28 40.853598 -111.997965 331 6061ft 202kts
09-Oct-19 11:29 40.890417 -112.061757 306 7599ft 231kts
09-Oct-19 11:30 40.934776 -112.126490 347 9264ft 253kts
09-Oct-19 11:31 41.003595 -112.099337 48 10464ft 296kts
09-Oct-19 11:32 41.052198 -112.006510 61 12227ft 316kts
09-Oct-19 11:33 41.088294 -111.902263 64 13494ft 317kts
09-Oct-19 11:34 41.126563 -111.796009 56 15504ft 327kts
09-Oct-19 11:35 41.206888 -111.752179 12 17576ft 322kts
09-Oct-19 11:36 41.295597 -111.730005 10 19187ft 328kts
09-Oct-19 11:37 41.384734 -111.708731 11 20787ft 324kts
09-Oct-19 11:38 41.470785 -111.675788 16 22246ft 323kts
09-Oct-19 11:39 41.556540 -111.642109 16 23415ft 332kts
09-Oct-19 11:40 41.646443 -111.606825 16 24551ft 343kts
09-Oct-19 11:41 41.739089 -111.570271 16 25680ft 354kts
09-Oct-19 11:42 41.835375 -111.538758 9 26898ft 359kts
09-Oct-19 11:43 41.932967 -111.516775 10 28201ft 355kts
09-Oct-19 11:44 42.028614 -111.495135 9 29490ft 344kts
09-Oct-19 11:45 42.120346 -111.474316 9 30760ft 325kts
09-Oct-19 11:46 42.209967 -111.453916 9 31004ft 336kts
09-Oct-19 11:47 42.303829 -111.429178 24 31006ft 354kts
09-Oct-19 11:48 42.393509 -111.366069 27 31001ft 375kts
09-Oct-19 11:49 42.488001 -111.298255 27 31001ft 396kts
09-Oct-19 11:50 42.585275 -111.228437 27 31002ft 417kts
09-Oct-19 11:51 42.689901 -111.155809 27 30072ft 460kts
09-Oct-19 11:52 42.803137 -111.075815 26 27913ft 463kts
09-Oct-19 11:53 42.917510 -110.994604 27 25750ft 468kts
09-Oct-19 11:54 43.032680 -110.912473 27 23568ft 467kts
09-Oct-19 11:55 43.145194 -110.832467 27 21301ft 452kts
09-Oct-19 11:56 43.254560 -110.753876 27 19019ft 438kts
09-Oct-19 11:57 43.358977 -110.678492 27 16762ft 423kts
09-Oct-19 11:58 43.458301 -110.601445 28 14512ft 409kts
09-Oct-19 11:59 43.557276 -110.529486 27 14110ft 407kts
09-Oct-19 12:00 43.655100 -110.459692 27 14111ft 406kts
09-Oct-19 12:01 43.754607 -110.389160 27 13090ft 382kts
09-Oct-19 12:02 43.842382 -110.360489 326 13116ft 307kts
09-Oct-19 12:03 43.843231 -110.458338 242 13109ft 283kts
09-Oct-19 12:04 43.812055 -110.559838 249 11415ft 284kts
09-Oct-19 12:05 43.768695 -110.641510 213 11008ft 243kts
09-Oct-19 12:06 43.712233 -110.686225 197 9083ft 225kts
09-Oct-19 12:07 43.656647 -110.713637 201 7409ft 190kts
09-Oct-19 12:08 43.611558 -110.735671 203 6441ft 157kts
09-Oct-19 12:09 43.599982 -110.739731 30 6419ft 18kts
09-Oct-19 12:10 43.602690 -110.737847 92 6425ft 0kts

Navigation Log

Ident Type
Flight plan parsing failed, navigation log unavailable